Time;durP1;ratioP1;P1;durP2;ratioP2;P2;SDS_P1;SDS_P2;PMS_P1;PMS_P2;Temp;Humidity;BMP_temperature;BMP_pressure;BME280_temperature;BME280_humidity;BME280_pressure;Samples;Min_cycle;Max_cycle;Signal;HPM_P1;HPM_P2
2021/07/01 00:00:11;;;;;;;13.55;5.85;;;15.70;93.50;;;;;;5070455;28;20032;-77
2021/07/01 00:02:37;;;;;;;13.05;5.68;;;15.70;93.60;;;;;;5070790;28;20017;-77
2021/07/01 00:05:05;;;;;;;13.82;5.93;;;15.60;93.50;;;;;;5070702;28;20465;-78
2021/07/01 00:07:31;;;;;;;9.30;4.40;;;15.60;93.50;;;;;;5070166;28;20025;-76
2021/07/01 00:09:56;;;;;;;10.05;5.30;;;15.60;93.50;;;;;;5070885;28;20064;-78
2021/07/01 00:12:22;;;;;;;9.20;5.05;;;15.60;93.50;;;;;;5070140;28;20027;-78
2021/07/01 00:14:47;;;;;;;9.70;4.82;;;15.60;93.60;;;;;;5072118;28;20059;-78
2021/07/01 00:17:13;;;;;;;10.43;5.40;;;15.50;93.50;;;;;;5070291;28;20020;-81
2021/07/01 00:19:39;;;;;;;8.98;4.55;;;15.50;93.60;;;;;;5070681;28;20061;-78
2021/07/01 00:22:05;;;;;;;8.40;4.75;;;15.60;93.60;;;;;;5071762;28;20125;-78
2021/07/01 00:24:30;;;;;;;11.82;5.13;;;15.60;93.50;;;;;;5069904;28;20020;-78
2021/07/01 00:26:56;;;;;;;10.45;5.18;;;15.60;93.80;;;;;;5070561;28;20031;-78
2021/07/01 00:29:22;;;;;;;10.07;4.65;;;15.60;93.50;;;;;;5069996;28;20511;-78
2021/07/01 00:31:47;;;;;;;10.38;5.28;;;15.70;93.50;;;;;;5070280;28;20074;-78
2021/07/01 00:34:13;;;;;;;9.60;5.38;;;15.60;93.50;;;;;;5071909;28;20021;-78
2021/07/01 00:36:39;;;;;;;10.85;5.10;;;15.60;93.60;;;;;;5069766;28;20027;-78
2021/07/01 00:39:05;;;;;;;9.60;5.05;;;15.60;93.60;;;;;;5070555;28;20024;-78
2021/07/01 00:41:31;;;;;;;12.57;5.43;;;15.60;93.60;;;;;;5069866;28;20379;-77
2021/07/01 00:43:57;;;;;;;10.85;5.13;;;15.70;93.60;;;;;;5070515;28;20025;-77
2021/07/01 00:46:23;;;;;;;10.52;5.28;;;15.70;93.60;;;;;;5071126;28;20021;-78
2021/07/01 00:48:48;;;;;;;11.68;5.18;;;15.70;93.60;;;;;;5070424;28;20025;-77
2021/07/01 00:51:14;;;;;;;10.65;5.38;;;15.60;93.50;;;;;;5070372;28;20032;-78
2021/07/01 00:53:40;;;;;;;10.75;4.85;;;15.60;93.50;;;;;;5069780;28;20070;-77
2021/07/01 00:56:08;;;;;;;14.45;5.70;;;15.50;93.60;;;;;;5070420;28;20032;-77
2021/07/01 00:58:36;;;;;;;11.95;4.93;;;15.50;93.70;;;;;;5069722;28;20139;-79
2021/07/01 01:01:02;;;;;;;13.15;4.75;;;15.50;93.80;;;;;;5070302;28;20029;-79
2021/07/01 01:03:36;;;;;;;11.38;5.18;;;15.50;93.70;;;;;;5071043;28;20039;-77
2021/07/01 01:06:06;;;;;;;11.23;5.38;;;15.50;93.70;;;;;;5071548;28;20028;-77
2021/07/01 01:08:32;;;;;;;11.00;5.57;;;15.50;93.60;;;;;;5069796;28;20020;-77
2021/07/01 01:10:59;;;;;;;8.73;4.97;;;15.60;93.60;;;;;;5072916;28;20041;-78
2021/07/01 01:13:25;;;;;;;14.88;6.63;;;15.60;93.60;;;;;;5073563;28;20043;-77
2021/07/01 01:16:11;;;;;;;9.98;4.72;;;15.60;93.50;;;;;;5074270;28;20029;-77
2021/07/01 01:18:37;;;;;;;14.95;6.00;;;15.60;93.50;;;;;;5073888;28;20036;-77
2021/07/01 01:21:03;;;;;;;13.43;5.47;;;15.50;93.50;;;;;;5075271;28;20353;-77
2021/07/01 01:23:29;;;;;;;12.40;5.47;;;15.60;93.50;;;;;;5072990;28;20028;-77
2021/07/01 01:25:59;;;;;;;12.45;5.53;;;15.50;93.50;;;;;;5075040;28;20032;-77
2021/07/01 01:28:25;;;;;;;9.93;5.30;;;15.60;93.50;;;;;;5073284;28;20089;-77
2021/07/01 01:30:51;;;;;;;8.60;4.30;;;15.60;93.50;;;;;;5073803;28;20112;-77
2021/07/01 01:33:17;;;;;;;13.98;5.18;;;15.60;93.70;;;;;;5073670;28;20440;-77
2021/07/01 01:35:43;;;;;;;8.02;4.32;;;15.60;93.40;;;;;;5073270;28;20354;-77
2021/07/01 01:38:12;;;;;;;13.40;4.43;;;15.60;93.30;;;;;;5073508;28;20028;-77
2021/07/01 01:40:39;;;;;;;13.95;5.15;;;15.60;93.30;;;;;;5072878;28;20456;-77
2021/07/01 01:43:05;;;;;;;12.57;5.13;;;15.60;93.30;;;;;;5073577;28;20095;-77
2021/07/01 01:45:31;;;;;;;10.43;4.85;;;15.60;93.30;;;;;;5072700;28;20567;-77
2021/07/01 01:47:57;;;;;;;7.32;3.75;;;15.60;93.30;;;;;;5073470;28;20031;-77
2021/07/01 01:50:24;;;;;;;8.70;4.68;;;15.60;93.30;;;;;;5072895;28;20107;-77
2021/07/01 01:52:50;;;;;;;9.40;4.40;;;15.60;93.30;;;;;;5073503;28;20028;-77
2021/07/01 01:55:16;;;;;;;7.43;4.13;;;15.60;93.30;;;;;;5074316;28;20061;-78
2021/07/01 01:57:43;;;;;;;7.72;3.47;;;15.60;93.20;;;;;;5072629;28;20484;-78
2021/07/01 02:00:11;;;;;;;6.75;3.45;;;15.60;93.20;;;;;;5073217;28;20024;-78
2021/07/01 02:02:38;;;;;;;11.77;4.75;;;15.70;93.20;;;;;;5072473;28;20487;-77
2021/07/01 02:05:07;;;;;;;8.30;4.22;;;15.60;93.10;;;;;;5073034;28;20025;-78
2021/07/01 02:07:36;;;;;;;9.75;4.38;;;15.50;93.30;;;;;;5072597;28;20373;-78
2021/07/01 02:10:05;;;;;;;10.32;3.85;;;15.50;93.30;;;;;;5072994;28;20053;-78
2021/07/01 02:12:31;;;;;;;8.68;4.13;;;15.40;93.40;;;;;;5072499;28;20017;-78
2021/07/01 02:14:57;;;;;;;10.02;4.30;;;15.30;93.50;;;;;;5073106;28;20097;-78
2021/07/01 02:17:23;;;;;;;11.23;4.30;;;15.20;93.70;;;;;;5072484;28;20021;-79
2021/07/01 02:19:49;;;;;;;7.68;3.97;;;15.10;93.80;;;;;;5072846;28;20426;-79
2021/07/01 02:22:15;;;;;;;10.02;4.43;;;15.10;94.00;;;;;;5073276;28;20029;-79
2021/07/01 02:24:41;;;;;;;10.88;4.03;;;15.10;94.10;;;;;;5072099;28;20476;-79
2021/07/01 02:27:08;;;;;;;12.10;4.05;;;15.00;94.10;;;;;;5074131;28;20059;-79
2021/07/01 02:29:34;;;;;;;9.63;4.63;;;15.00;94.20;;;;;;5072232;28;20055;-79
2021/07/01 02:32:00;;;;;;;9.43;4.13;;;15.10;94.20;;;;;;5072684;28;20380;-78
2021/07/01 02:34:26;;;;;;;9.38;3.97;;;15.10;94.20;;;;;;5072050;28;20025;-79
2021/07/01 02:36:52;;;;;;;7.78;4.22;;;15.00;94.30;;;;;;5072624;28;20031;-79
2021/07/01 02:39:17;;;;;;;7.32;3.90;;;15.00;94.40;;;;;;5072718;28;20028;-79
2021/07/01 02:41:43;;;;;;;7.65;3.80;;;15.00;94.40;;;;;;5073233;28;20097;-78
2021/07/01 02:44:09;;;;;;;10.05;4.47;;;14.90;94.50;;;;;;5072428;28;20032;-79
2021/07/01 02:46:34;;;;;;;11.50;3.97;;;14.90;94.60;;;;;;5073176;28;20048;-80
2021/07/01 02:49:00;;;;;;;6.80;3.50;;;14.80;94.60;;;;;;5072336;28;20017;-79
2021/07/01 02:51:26;;;;;;;8.25;3.15;;;14.80;94.70;;;;;;5071815;28;20025;-79
2021/07/01 02:53:51;;;;;;;7.70;3.55;;;14.80;94.70;;;;;;5072593;28;20020;-78
2021/07/01 02:56:18;;;;;;;8.00;3.60;;;14.80;94.70;;;;;;5072187;28;20032;-78
2021/07/01 02:58:43;;;;;;;6.45;2.90;;;14.80;94.70;;;;;;5072938;28;20480;-78
2021/07/01 03:01:09;;;;;;;9.10;3.63;;;14.80;94.70;;;;;;5072173;28;20013;-78
2021/07/01 03:03:35;;;;;;;8.73;3.95;;;14.80;94.70;;;;;;5071506;28;20403;-78
2021/07/01 03:06:01;;;;;;;10.95;3.72;;;14.80;94.70;;;;;;5071844;28;20594;-78
2021/07/01 03:08:27;;;;;;;8.43;4.03;;;14.70;94.70;;;;;;5071383;28;20048;-79
2021/07/01 03:10:53;;;;;;;8.63;4.05;;;14.80;94.80;;;;;;5071695;28;20485;-78
2021/07/01 03:13:18;;;;;;;8.02;3.92;;;14.70;94.70;;;;;;5071916;28;20019;-79
2021/07/01 03:15:44;;;;;;;5.68;3.33;;;14.80;94.80;;;;;;5071384;28;20479;-79
2021/07/01 03:18:10;;;;;;;10.32;3.80;;;14.70;94.70;;;;;;5072909;28;20542;-78
2021/07/01 03:20:35;;;;;;;7.32;4.03;;;14.70;94.80;;;;;;5071245;28;20048;-79
2021/07/01 03:23:02;;;;;;;9.55;4.20;;;14.70;94.80;;;;;;5071875;28;20024;-79
2021/07/01 03:25:28;;;;;;;9.90;3.83;;;14.70;94.80;;;;;;5070893;28;20115;-79
2021/07/01 03:27:54;;;;;;;8.82;4.20;;;14.80;94.80;;;;;;5071576;28;20460;-79
2021/07/01 03:30:20;;;;;;;7.50;3.75;;;14.80;94.70;;;;;;5071916;28;20120;-79
2021/07/01 03:32:45;;;;;;;8.32;3.78;;;14.70;94.70;;;;;;5070753;28;20031;-79
2021/07/01 03:35:11;;;;;;;10.10;4.10;;;14.70;94.80;;;;;;5071404;28;20381;-78
2021/07/01 03:37:37;;;;;;;8.13;3.63;;;14.70;94.80;;;;;;5070755;28;20032;-80
2021/07/01 03:40:07;;;;;;;10.85;3.50;;;14.70;94.80;;;;;;5071440;28;20024;-80
2021/07/01 03:42:33;;;;;;;8.95;3.80;;;14.70;94.80;;;;;;5070969;28;20062;-79
2021/07/01 03:44:59;;;;;;;10.50;3.88;;;14.70;94.80;;;;;;5070825;28;20025;-79
2021/07/01 03:47:24;;;;;;;7.78;3.70;;;14.70;94.80;;;;;;5071388;28;20032;-79
2021/07/01 03:49:50;;;;;;;7.47;3.25;;;14.70;94.70;;;;;;5070602;28;20518;-79
2021/07/01 03:52:16;;;;;;;9.90;3.78;;;14.60;94.70;;;;;;5071121;28;20559;-78
2021/07/01 03:54:41;;;;;;;8.68;3.65;;;14.70;94.80;;;;;;5070586;28;20486;-79
2021/07/01 03:57:07;;;;;;;7.40;3.20;;;14.60;94.80;;;;;;5071127;28;20051;-79
2021/07/01 03:59:33;;;;;;;9.55;3.67;;;14.70;94.80;;;;;;5070543;28;20047;-80
2021/07/01 04:01:59;;;;;;;8.15;3.47;;;14.70;94.80;;;;;;5070849;28;20061;-79
2021/07/01 04:04:24;;;;;;;8.45;3.42;;;14.70;94.70;;;;;;5070984;28;20044;-79
2021/07/01 04:06:50;;;;;;;11.48;3.97;;;14.70;94.70;;;;;;5070340;28;20376;-79
2021/07/01 04:09:15;;;;;;;7.10;3.25;;;14.70;94.70;;;;;;5070879;28;20029;-79
2021/07/01 04:11:41;;;;;;;6.75;2.80;;;14.80;94.60;;;;;;5071711;28;20047;-79
2021/07/01 04:14:07;;;;;;;9.05;2.97;;;14.80;94.60;;;;;;5072278;28;20033;-79
2021/07/01 04:16:32;;;;;;;10.57;3.53;;;14.80;94.60;;;;;;5070171;28;20380;-79
2021/07/01 04:18:59;;;;;;;12.80;4.13;;;14.80;94.50;;;;;;5072201;28;20027;-80
2021/07/01 04:21:28;;;;;;;10.55;4.03;;;14.90;94.50;;;;;;5070667;28;20381;-80
2021/07/01 04:23:57;;;;;;;10.93;3.92;;;14.80;94.50;;;;;;5070168;28;20021;-79
2021/07/01 04:26:24;;;;;;;11.88;3.80;;;14.80;94.50;;;;;;5071966;28;20025;-79
2021/07/01 04:28:51;;;;;;;6.53;3.00;;;14.90;94.50;;;;;;5070006;28;20045;-80
2021/07/01 04:31:17;;;;;;;7.30;3.13;;;14.80;94.50;;;;;;5070649;28;20541;-79
2021/07/01 04:33:43;;;;;;;8.68;3.25;;;14.90;94.50;;;;;;5069975;28;20029;-80
2021/07/01 04:36:09;;;;;;;9.30;3.17;;;14.90;94.40;;;;;;5071959;28;20032;-81
2021/07/01 04:38:35;;;;;;;6.40;3.72;;;14.90;94.40;;;;;;5071266;28;20021;-81
2021/07/01 04:41:01;;;;;;;7.03;3.25;;;14.90;94.30;;;;;;5070594;28;20028;-80
2021/07/01 04:43:26;;;;;;;10.57;3.85;;;14.90;94.40;;;;;;5072162;28;20028;-80
2021/07/01 04:45:52;;;;;;;6.80;2.92;;;14.90;94.40;;;;;;5073196;28;20032;-80
2021/07/01 04:48:18;;;;;;;6.10;3.28;;;14.90;94.30;;;;;;5074584;28;20127;-80
2021/07/01 04:50:44;;;;;;;5.78;3.13;;;14.90;94.30;;;;;;5075444;28;20020;-80
2021/07/01 04:53:09;;;;;;;7.22;3.15;;;14.80;94.30;;;;;;5074541;28;20083;-80
2021/07/01 04:55:35;;;;;;;10.27;2.78;;;14.90;94.30;;;;;;5075455;28;20050;-80
2021/07/01 04:58:01;;;;;;;11.48;3.50;;;14.90;94.30;;;;;;5074492;28;20031;-80
2021/07/01 05:00:26;;;;;;;6.80;2.72;;;14.90;94.20;;;;;;5075708;28;20020;-79
2021/07/01 05:02:52;;;;;;;7.47;2.75;;;14.80;94.20;;;;;;5073825;28;20017;-80
2021/07/01 05:05:18;;;;;;;7.95;3.35;;;14.90;94.20;;;;;;5075484;28;20032;-80
2021/07/01 05:07:45;;;;;;;9.15;3.10;;;14.90;94.20;;;;;;5073816;28;20389;-80
2021/07/01 05:10:14;;;;;;;4.72;2.58;;;14.90;94.20;;;;;;5073978;28;20020;-79
2021/07/01 05:12:40;;;;;;;7.55;3.33;;;14.90;94.20;;;;;;5073733;28;20480;-79
2021/07/01 05:15:07;;;;;;;8.27;3.55;;;15.00;94.10;;;;;;5074133;28;20020;-79
2021/07/01 05:17:36;;;;;;;10.32;3.25;;;15.00;94.10;;;;;;5074123;28;20023;-78
2021/07/01 05:20:04;;;;;;;10.52;3.60;;;14.90;94.10;;;;;;5074048;28;20403;-79
2021/07/01 05:22:29;;;;;;;10.82;3.60;;;15.00;94.00;;;;;;5073980;28;20366;-79
2021/07/01 05:24:55;;;;;;;9.25;3.97;;;15.00;94.00;;;;;;5074342;28;20159;-79
2021/07/01 05:27:20;;;;;;;9.50;4.28;;;15.00;94.10;;;;;;5073522;28;20025;-79
2021/07/01 05:29:46;;;;;;;9.82;4.07;;;14.90;94.00;;;;;;5073222;28;20115;-79
2021/07/01 05:32:13;;;;;;;11.38;4.45;;;15.00;94.00;;;;;;5074191;28;20025;-79
2021/07/01 05:34:39;;;;;;;8.00;4.18;;;15.00;94.10;;;;;;5073121;28;20029;-79
2021/07/01 05:37:05;;;;;;;9.98;4.20;;;15.00;94.10;;;;;;5073402;28;20025;-79
2021/07/01 05:39:30;;;;;;;9.02;4.30;;;14.90;94.00;;;;;;5073813;28;20067;-79
2021/07/01 05:41:56;;;;;;;8.40;3.90;;;14.90;94.20;;;;;;5073046;28;20419;-79
2021/07/01 05:44:22;;;;;;;8.25;4.00;;;14.90;94.10;;;;;;5073433;28;20040;-79
2021/07/01 05:46:48;;;;;;;10.38;3.90;;;14.90;94.10;;;;;;5074275;28;20452;-79
2021/07/01 05:49:14;;;;;;;9.38;3.78;;;14.90;94.10;;;;;;5074968;28;20024;-79
2021/07/01 05:51:40;;;;;;;8.40;4.45;;;14.80;94.10;;;;;;5073306;28;20077;-79
2021/07/01 05:54:29;;;;;;;11.00;3.92;;;14.80;94.10;;;;;;5073963;28;20027;-78
2021/07/01 05:56:55;;;;;;;12.45;4.72;;;14.80;94.10;;;;;;5073643;28;20146;-79
2021/07/01 05:59:20;;;;;;;10.73;4.40;;;14.80;94.10;;;;;;5073208;28;20107;-80
2021/07/01 06:01:46;;;;;;;9.00;3.85;;;14.80;94.20;;;;;;5072720;28;20377;-79
2021/07/01 06:04:13;;;;;;;13.35;4.55;;;14.80;94.10;;;;;;5073285;28;20070;-79
2021/07/01 06:06:40;;;;;;;10.27;3.95;;;14.80;94.10;;;;;;5072536;28;20028;-81
2021/07/01 06:09:07;;;;;;;8.80;4.03;;;14.90;94.20;;;;;;5073023;28;20468;-79
2021/07/01 06:11:34;;;;;;;11.18;4.15;;;14.90;94.40;;;;;;5072760;28;20449;-79
2021/07/01 06:14:01;;;;;;;10.25;4.07;;;15.00;94.10;;;;;;5072513;28;20044;-79
2021/07/01 06:16:30;;;;;;;7.22;4.03;;;15.00;94.20;;;;;;5072893;28;20036;-79
2021/07/01 06:18:56;;;;;;;9.07;4.03;;;15.00;94.10;;;;;;5072313;28;20107;-79
2021/07/01 06:21:23;;;;;;;8.93;3.55;;;15.00;94.10;;;;;;5072784;28;20115;-79
2021/07/01 06:23:49;;;;;;;5.05;2.88;;;15.00;94.00;;;;;;5071930;28;20023;-79
2021/07/01 06:26:22;;;;;;;8.27;3.60;;;15.00;94.00;;;;;;5072713;28;20055;-78
2021/07/01 06:28:48;;;;;;;8.57;3.70;;;15.10;94.00;;;;;;5072230;28;20111;-79
2021/07/01 06:31:14;;;;;;;8.68;3.63;;;15.10;94.00;;;;;;5072696;28;20016;-79
2021/07/01 06:33:42;;;;;;;7.43;3.15;;;15.10;94.00;;;;;;5072078;28;20020;-80
2021/07/01 06:36:12;;;;;;;7.43;3.53;;;15.10;93.90;;;;;;5072573;28;20036;-79
2021/07/01 06:38:45;;;;;;;6.13;3.30;;;15.20;94.00;;;;;;5072657;28;20021;-79
2021/07/01 06:41:12;;;;;;;5.82;2.50;;;15.20;93.90;;;;;;5072885;28;20050;-79
2021/07/01 06:43:39;;;;;;;6.60;3.20;;;15.20;93.90;;;;;;5072504;28;20427;-79
2021/07/01 06:46:06;;;;;;;5.45;2.80;;;15.30;93.80;;;;;;5072389;28;20032;-79
2021/07/01 06:48:33;;;;;;;7.55;3.45;;;15.30;93.80;;;;;;5072256;28;20075;-79
2021/07/01 06:50:59;;;;;;;8.50;3.10;;;15.30;93.80;;;;;;5071738;28;20025;-79
2021/07/01 06:53:27;;;;;;;7.47;2.60;;;15.30;93.70;;;;;;5072400;28;20500;-79
2021/07/01 06:55:53;;;;;;;6.75;3.22;;;15.30;93.70;;;;;;5071614;28;20028;-80
2021/07/01 06:58:20;;;;;;;6.88;3.40;;;15.40;93.70;;;;;;5073284;28;20016;-79
2021/07/01 07:00:46;;;;;;;8.82;3.47;;;15.40;93.80;;;;;;5071599;28;20123;-79
2021/07/01 07:03:17;;;;;;;7.70;3.40;;;15.40;93.70;;;;;;5072071;28;20017;-79
2021/07/01 07:05:49;;;;;;;8.07;3.53;;;15.40;93.70;;;;;;5071009;28;20081;-80
2021/07/01 07:08:15;;;;;;;8.85;4.20;;;15.50;93.70;;;;;;5072707;28;20039;-79
2021/07/01 07:10:43;;;;;;;7.93;3.45;;;15.40;93.70;;;;;;5071882;28;20041;-79
2021/07/01 07:13:09;;;;;;;12.30;4.75;;;15.50;93.60;;;;;;5073146;28;20020;-79
2021/07/01 07:15:35;;;;;;;8.55;4.13;;;15.50;93.60;;;;;;5073357;28;20027;-79
2021/07/01 07:18:21;;;;;;;17.10;5.35;;;15.50;93.60;;;;;;5071211;28;20024;-79
2021/07/01 07:20:58;;;;;;;9.23;3.92;;;15.50;93.60;;;;;;5072550;28;20020;-80
2021/07/01 07:23:42;;;;;;;9.82;4.40;;;15.60;93.60;;;;;;5071837;28;20103;-79
2021/07/01 07:26:20;;;;;;;14.82;4.22;;;15.60;93.50;;;;;;5071984;28;20021;-79
2021/07/01 07:28:54;;;;;;;8.23;3.97;;;15.50;93.50;;;;;;5071058;28;20030;-80
2021/07/01 07:31:29;;;;;;;10.00;4.60;;;15.60;93.80;;;;;;5071752;28;20021;-79
2021/07/01 07:34:07;;;;;;;8.93;3.83;;;15.50;93.50;;;;;;5070830;28;20051;-79
2021/07/01 07:36:36;;;;;;;10.85;4.32;;;15.50;93.60;;;;;;5071392;28;20024;-79
2021/07/01 07:39:05;;;;;;;10.73;5.13;;;15.50;93.60;;;;;;5070621;28;20033;-79
2021/07/01 07:41:30;;;;;;;15.35;4.57;;;15.50;93.60;;;;;;5072523;28;20420;-79
2021/07/01 07:43:56;;;;;;;11.85;4.72;;;15.50;93.60;;;;;;5070604;28;20036;-79
2021/07/01 07:46:24;;;;;;;9.00;3.60;;;15.60;93.60;;;;;;5071379;28;20028;-79
2021/07/01 07:48:51;;;;;;;11.30;5.10;;;15.60;93.50;;;;;;5070531;28;20115;-79
2021/07/01 07:51:21;;;;;;;12.10;4.30;;;15.60;93.50;;;;;;5071005;28;20050;-79
2021/07/01 07:53:51;;;;;;;10.07;4.53;;;15.60;93.50;;;;;;5070551;28;20024;-80
2021/07/01 07:56:25;;;;;;;9.05;4.53;;;15.70;93.50;;;;;;5071000;28;20030;-79
2021/07/01 07:58:54;;;;;;;12.98;4.63;;;15.70;93.50;;;;;;5070085;28;20020;-79
2021/07/01 08:01:20;;;;;;;9.82;4.50;;;15.70;93.40;;;;;;5070844;28;20396;-79
2021/07/01 08:03:50;;;;;;;11.05;4.38;;;15.70;93.40;;;;;;5070299;28;20354;-83
2021/07/01 08:06:16;;;;;;;11.85;4.28;;;15.70;93.40;;;;;;5070842;28;20024;-80
2021/07/01 08:08:43;;;;;;;10.27;4.85;;;15.70;93.40;;;;;;5070914;28;20024;-79
2021/07/01 08:11:10;;;;;;;12.50;4.40;;;15.70;93.40;;;;;;5070048;28;20076;-80
2021/07/01 08:13:37;;;;;;;12.45;4.43;;;15.80;93.50;;;;;;5071011;28;20505;-80
2021/07/01 08:16:05;;;;;;;11.18;5.05;;;15.80;93.40;;;;;;5071276;28;20380;-80
2021/07/01 08:18:40;;;;;;;10.52;4.82;;;15.80;93.40;;;;;;5071423;28;20020;-81
2021/07/01 08:21:13;;;;;;;16.30;4.90;;;15.80;93.40;;;;;;5069952;28;20025;-80
2021/07/01 08:23:41;;;;;;;12.60;5.15;;;15.80;93.50;;;;;;5070756;28;20040;-80
2021/07/01 08:26:08;;;;;;;12.55;5.20;;;15.80;93.40;;;;;;5070038;28;20039;-80
2021/07/01 08:28:34;;;;;;;15.02;4.97;;;15.80;93.40;;;;;;5070588;28;20500;-81
2021/07/01 08:31:09;;;;;;;8.20;4.07;;;15.80;93.40;;;;;;5070082;28;20024;-81
2021/07/01 08:33:37;;;;;;;11.48;5.05;;;15.80;93.50;;;;;;5070792;28;20028;-80
2021/07/01 08:36:05;;;;;;;12.13;5.18;;;15.70;93.50;;;;;;5070078;28;20107;-81
2021/07/01 08:38:39;;;;;;;13.90;5.47;;;15.60;93.50;;;;;;5070657;28;20021;-80
2021/07/01 08:41:10;;;;;;;15.35;5.30;;;15.60;93.60;;;;;;5071343;28;20048;-80
2021/07/01 08:43:42;;;;;;;14.15;5.22;;;15.60;93.70;;;;;;5071917;28;20051;-81
2021/07/01 08:46:15;;;;;;;20.55;4.85;;;15.60;93.70;;;;;;5070843;28;20426;-81
2021/07/01 08:49:01;;;;;;;11.88;5.03;;;15.60;93.70;;;;;;5070588;28;20021;-81
2021/07/01 08:51:38;;;;;;;11.35;5.05;;;15.60;93.80;;;;;;5070530;28;20145;-81
2021/07/01 08:54:16;;;;;;;16.65;5.53;;;15.70;93.80;;;;;;5071389;28;20469;-81
2021/07/01 08:56:43;;;;;;;13.98;4.25;;;15.60;93.80;;;;;;5070713;28;20025;-81
2021/07/01 08:59:09;;;;;;;11.00;5.22;;;15.70;93.80;;;;;;5069875;28;20414;-81
2021/07/01 09:01:40;;;;;;;12.20;5.90;;;15.60;93.80;;;;;;5070426;28;20062;-80
2021/07/01 09:04:13;;;;;;;11.32;4.82;;;15.70;93.90;;;;;;5070039;28;20020;-81
2021/07/01 09:06:40;;;;;;;14.70;5.50;;;15.70;93.90;;;;;;5070383;28;20441;-81
2021/07/01 09:09:08;;;;;;;15.90;5.22;;;15.70;93.90;;;;;;5069728;28;20029;-81
2021/07/01 09:11:41;;;;;;;11.27;5.03;;;15.70;93.90;;;;;;5069865;28;20484;-80
2021/07/01 09:14:09;;;;;;;10.05;4.80;;;15.70;94.00;;;;;;5071320;28;20052;-80
2021/07/01 09:16:37;;;;;;;12.38;4.95;;;15.60;94.10;;;;;;5070195;28;20020;-80
2021/07/01 09:19:03;;;;;;;14.10;4.88;;;15.60;94.40;;;;;;5069583;28;20460;-81
2021/07/01 09:21:30;;;;;;;14.20;5.00;;;15.60;94.30;;;;;;5070380;28;20036;-80
2021/07/01 09:23:59;;;;;;;11.35;4.65;;;15.60;94.30;;;;;;5069629;28;20063;-81
2021/07/01 09:26:26;;;;;;;11.35;5.15;;;15.70;94.40;;;;;;5070139;28;20028;-81
2021/07/01 09:28:54;;;;;;;18.15;5.47;;;15.60;94.30;;;;;;5069872;28;20021;-82
2021/07/01 09:31:23;;;;;;;16.95;5.45;;;15.70;94.30;;;;;;5072530;28;20025;-80
2021/07/01 09:33:51;;;;;;;13.13;5.30;;;15.70;94.40;;;;;;5073692;28;20020;-81
2021/07/01 09:36:20;;;;;;;13.10;5.25;;;15.60;94.30;;;;;;5073448;28;20025;-81
2021/07/01 09:38:48;;;;;;;12.85;5.47;;;15.60;94.40;;;;;;5075178;28;20025;-81
2021/07/01 09:41:14;;;;;;;13.77;5.22;;;15.50;94.40;;;;;;5073054;28;20028;-81
2021/07/01 09:43:41;;;;;;;13.35;5.40;;;15.50;94.50;;;;;;5073447;28;20464;-81
2021/07/01 09:46:12;;;;;;;12.90;5.03;;;15.50;94.50;;;;;;5072824;28;20039;-81
2021/07/01 09:48:45;;;;;;;14.60;5.20;;;15.40;94.60;;;;;;5073585;28;20035;-81
2021/07/01 09:51:11;;;;;;;16.15;4.53;;;15.50;94.70;;;;;;5072866;28;20191;-81
2021/07/01 09:53:39;;;;;;;12.15;5.00;;;15.50;94.70;;;;;;5075107;28;20398;-80
2021/07/01 09:56:06;;;;;;;12.80;5.40;;;15.50;94.70;;;;;;5074192;28;20051;-80
2021/07/01 09:58:36;;;;;;;15.75;5.32;;;15.50;94.70;;;;;;5074688;28;20061;-80
2021/07/01 10:01:01;;;;;;;16.25;6.10;;;15.50;94.80;;;;;;5074044;28;20024;-81
2021/07/01 10:03:27;;;;;;;19.90;5.50;;;15.50;94.90;;;;;;5073139;28;20103;-80
2021/07/01 10:05:53;;;;;;;19.77;5.93;;;15.40;94.90;;;;;;5073418;28;20097;-80
2021/07/01 10:08:19;;;;;;;15.20;5.88;;;15.40;94.90;;;;;;5073268;28;20102;-80
2021/07/01 10:10:49;;;;;;;17.90;5.55;;;15.50;95.00;;;;;;5072765;28;20041;-80
2021/07/01 10:13:15;;;;;;;13.23;5.15;;;15.50;95.00;;;;;;5072565;28;20418;-80
2021/07/01 10:15:42;;;;;;;15.90;5.90;;;15.50;95.00;;;;;;5073219;28;20024;-80
2021/07/01 10:18:10;;;;;;;12.52;5.18;;;15.50;95.00;;;;;;5073643;28;20020;-80
2021/07/01 10:20:39;;;;;;;14.98;5.25;;;15.60;95.00;;;;;;5072949;28;20021;-80
2021/07/01 10:23:28;;;;;;;16.10;5.40;;;15.60;94.90;;;;;;5073738;28;20051;-81
2021/07/01 10:25:56;;;;;;;16.27;6.25;;;15.60;94.90;;;;;;5069260;28;20029;-81
2021/07/01 10:28:24;;;;;;;15.85;5.88;;;15.70;94.90;;;;;;5073081;28;20033;-81
2021/07/01 10:31:02;;;;;;;17.98;6.32;;;15.70;94.80;;;;;;5073160;28;20021;-81
2021/07/01 10:33:29;;;;;;;11.02;5.55;;;15.70;94.80;;;;;;5074772;28;20095;-81
2021/07/01 10:36:01;;;;;;;14.60;5.50;;;15.70;94.80;;;;;;5074268;28;20043;-80
2021/07/01 10:38:27;;;;;;;12.70;5.22;;;15.80;94.90;;;;;;5074019;28;20024;-80
2021/07/01 10:40:55;;;;;;;15.95;5.20;;;15.90;94.80;;;;;;5076802;28;20078;-80
2021/07/01 10:43:41;;;;;;;16.02;6.30;;;16.00;94.70;;;;;;5075041;28;20122;-80
2021/07/01 10:46:07;;;;;;;16.05;5.25;;;16.10;94.70;;;;;;5072091;28;20029;-82
2021/07/01 10:48:32;;;;;;;13.82;5.95;;;16.10;94.60;;;;;;5072541;28;20480;-81
2021/07/01 10:51:10;;;;;;;20.33;6.53;;;16.10;94.50;;;;;;5071776;28;20024;-81
2021/07/01 10:53:39;;;;;;;13.82;5.60;;;16.20;94.60;;;;;;5072392;28;20052;-81
2021/07/01 10:56:08;;;;;;;16.88;5.75;;;16.20;94.60;;;;;;5071591;28;20017;-81
2021/07/01 10:58:34;;;;;;;18.15;5.82;;;16.20;94.60;;;;;;5073641;28;20027;-81
2021/07/01 11:01:01;;;;;;;16.08;5.88;;;16.30;94.50;;;;;;5071656;28;20013;-81
2021/07/01 11:03:30;;;;;;;15.75;5.78;;;16.30;94.50;;;;;;5073735;28;20052;-81
2021/07/01 11:05:58;;;;;;;10.25;5.18;;;16.40;94.50;;;;;;5072085;28;20202;-81
2021/07/01 11:08:32;;;;;;;15.63;6.13;;;16.40;94.40;;;;;;5072078;28;20025;-81
2021/07/01 11:10:59;;;;;;;13.98;5.03;;;16.40;94.40;;;;;;5071863;28;20441;-81
2021/07/01 11:13:27;;;;;;;15.85;6.22;;;16.40;94.50;;;;;;5072013;28;20461;-81
2021/07/01 11:16:32;;;;;;;14.50;6.22;;;16.40;94.50;;;;;;5071668;28;20067;-81
2021/07/01 11:18:58;;;;;;;10.52;5.32;;;16.40;94.40;;;;;;5065417;28;20517;-81
2021/07/01 11:21:24;;;;;;;13.50;5.78;;;16.50;94.40;;;;;;5071675;28;20020;-81
2021/07/01 11:23:52;;;;;;;13.23;6.13;;;16.50;94.40;;;;;;5071744;28;20024;-81
2021/07/01 11:26:24;;;;;;;15.02;5.85;;;16.40;94.40;;;;;;5072454;28;20028;-81
2021/07/01 11:28:51;;;;;;;13.50;5.55;;;16.40;94.40;;;;;;5073253;28;20381;-81
2021/07/01 11:31:17;;;;;;;15.88;6.28;;;16.40;94.40;;;;;;5070981;28;20121;-80
2021/07/01 11:33:51;;;;;;;12.73;6.80;;;16.40;94.40;;;;;;5071600;28;20445;-79
2021/07/01 11:36:19;;;;;;;14.32;5.38;;;16.50;94.40;;;;;;5070819;28;20028;-80
2021/07/01 11:38:46;;;;;;;16.75;6.32;;;16.50;94.30;;;;;;5072821;28;20020;-80
2021/07/01 11:41:13;;;;;;;15.65;6.18;;;16.60;94.30;;;;;;5070852;28;20025;-80
2021/07/01 11:43:41;;;;;;;14.05;5.60;;;16.60;94.20;;;;;;5071700;28;20169;-80
2021/07/01 11:46:07;;;;;;;18.40;6.50;;;16.60;94.20;;;;;;5070744;28;20035;-81
2021/07/01 11:48:35;;;;;;;13.80;5.90;;;16.60;94.10;;;;;;5071470;28;20020;-80
2021/07/01 11:51:04;;;;;;;12.60;5.20;;;16.60;94.10;;;;;;5071210;28;20021;-81
2021/07/01 11:53:30;;;;;;;13.80;5.00;;;16.70;94.10;;;;;;5072631;28;20099;-81
2021/07/01 11:55:58;;;;;;;14.88;5.30;;;16.90;94.00;;;;;;5071085;28;20052;-80
2021/07/01 11:58:25;;;;;;;13.48;5.35;;;16.90;93.80;;;;;;5070407;28;20432;-81
2021/07/01 12:00:52;;;;;;;12.70;5.22;;;17.00;93.70;;;;;;5070995;28;20028;-80
2021/07/01 12:03:18;;;;;;;16.67;5.85;;;17.00;93.60;;;;;;5071968;28;20029;-81
2021/07/01 12:05:46;;;;;;;15.73;5.75;;;17.00;93.60;;;;;;5070930;28;20050;-80
2021/07/01 12:08:13;;;;;;;14.98;4.80;;;17.10;93.60;;;;;;5070480;28;20123;-80
2021/07/01 12:10:39;;;;;;;13.82;5.65;;;17.20;93.50;;;;;;5070505;28;20329;-80
2021/07/01 12:13:33;;;;;;;15.23;5.38;;;17.20;93.40;;;;;;5070019;28;20025;-81
2021/07/01 12:15:59;;;;;;;10.75;4.72;;;17.30;93.20;;;;;;5070492;28;20028;-81
2021/07/01 12:18:45;;;;;;;13.73;4.10;;;17.30;93.10;;;;;;5070265;28;20377;-81
2021/07/01 12:21:26;;;;;;;10.00;4.00;;;17.30;93.00;;;;;;5069878;28;20029;-81
2021/07/01 12:23:55;;;;;;;8.75;3.63;;;17.30;92.90;;;;;;5070837;28;20093;-82
2021/07/01 12:26:50;;;;;;;11.57;5.30;;;17.30;92.90;;;;;;5070243;28;20047;-81
2021/07/01 12:29:44;;;;;;;13.88;4.97;;;17.30;92.90;;;;;;5051690;28;20044;-81
2021/07/01 12:32:25;;;;;;;12.50;4.22;;;17.30;92.90;;;;;;5070001;28;20066;-81
2021/07/01 12:34:51;;;;;;;12.63;5.30;;;17.40;92.80;;;;;;5070819;28;20017;-81
2021/07/01 12:37:17;;;;;;;12.73;4.25;;;17.50;92.60;;;;;;5070110;28;20025;-81
2021/07/01 12:39:47;;;;;;;10.68;4.50;;;17.60;92.50;;;;;;5070667;28;20336;-81
2021/07/01 12:42:13;;;;;;;10.50;5.05;;;17.80;92.40;;;;;;5070209;28;20033;-81
2021/07/01 12:44:44;;;;;;;14.73;5.10;;;17.80;92.20;;;;;;5070398;28;20067;-80